sensor_id;sensor_type;location;lat;lon;timestamp;pressure;altitude;pressure_sealevel;temperature;humidity
35878;BME280;21982;49.804;24.072;2023-02-13T00:00:40;98700.72;;;-3.73;64.20
35878;BME280;21982;49.804;24.072;2023-02-13T00:03:05;98603.53;;;-4.39;64.22
35878;BME280;21982;49.804;24.072;2023-02-13T00:05:31;98722.28;;;-3.52;64.57
35878;BME280;21982;49.804;24.072;2023-02-13T00:07:56;98715.28;;;-3.50;64.44
35878;BME280;21982;49.804;24.072;2023-02-13T00:10:21;98846.09;;;-2.80;64.47
35878;BME280;21982;49.804;24.072;2023-02-13T00:12:47;98946.72;;;-2.10;64.20
35878;BME280;21982;49.804;24.072;2023-02-13T00:15:12;98559.25;;;-4.72;64.34
35878;BME280;21982;49.804;24.072;2023-02-13T00:17:37;98746.97;;;-3.24;64.69
35878;BME280;21982;49.804;24.072;2023-02-13T00:20:04;98666.38;;;-3.76;64.56
35878;BME280;21982;49.804;24.072;2023-02-13T00:22:29;98408.13;;;-5.45;64.85
35878;BME280;21982;49.804;24.072;2023-02-13T00:24:55;98546.38;;;-4.74;64.38
35878;BME280;21982;49.804;24.072;2023-02-13T00:27:20;98568.50;;;-4.26;64.74
35878;BME280;21982;49.804;24.072;2023-02-13T00:29:45;98603.16;;;-4.30;64.61
35878;BME280;21982;49.804;24.072;2023-02-13T00:32:11;98423.25;;;-5.35;64.74
35878;BME280;21982;49.804;24.072;2023-02-13T00:34:36;98553.09;;;-4.69;65.12
35878;BME280;21982;49.804;24.072;2023-02-13T00:37:02;98566.38;;;-4.36;64.80
35878;BME280;21982;49.804;24.072;2023-02-13T00:39:27;98531.41;;;-4.45;64.92
35878;BME280;21982;49.804;24.072;2023-02-13T00:41:53;98278.22;;;-6.26;64.77
35878;BME280;21982;49.804;24.072;2023-02-13T00:44:18;98606.31;;;-4.03;64.65
35878;BME280;21982;49.804;24.072;2023-02-13T00:46:43;98885.53;;;-2.16;65.25
35878;BME280;21982;49.804;24.072;2023-02-13T00:49:09;98286.84;;;-6.05;64.94
35878;BME280;21982;49.804;24.072;2023-02-13T00:51:34;98239.75;;;-6.31;64.74
35878;BME280;21982;49.804;24.072;2023-02-13T00:54:00;98758.56;;;-2.94;65.21
35878;BME280;21982;49.804;24.072;2023-02-13T00:56:26;98915.13;;;-2.01;65.36
35878;BME280;21982;49.804;24.072;2023-02-13T00:58:51;98927.53;;;-2.08;65.55
35878;BME280;21982;49.804;24.072;2023-02-13T01:01:17;98462.16;;;-4.98;65.10
35878;BME280;21982;49.804;24.072;2023-02-13T01:03:42;98906.75;;;-2.08;65.43
35878;BME280;21982;49.804;24.072;2023-02-13T01:06:07;98903.38;;;-2.08;65.43
35878;BME280;21982;49.804;24.072;2023-02-13T01:08:33;98518.22;;;-4.59;65.36
35878;BME280;21982;49.804;24.072;2023-02-13T01:10:59;98656.72;;;-3.73;65.62
35878;BME280;21982;49.804;24.072;2023-02-13T01:13:25;98512.97;;;-4.78;65.50
35878;BME280;21982;49.804;24.072;2023-02-13T01:15:51;98515.09;;;-4.47;65.74
35878;BME280;21982;49.804;24.072;2023-02-13T01:18:18;98902.59;;;-2.10;65.88
35878;BME280;21982;49.804;24.072;2023-02-13T01:20:44;98930.13;;;-2.08;66.11
35878;BME280;21982;49.804;24.072;2023-02-13T01:23:10;98904.81;;;-2.03;65.61
35878;BME280;21982;49.804;24.072;2023-02-13T01:25:42;98825.22;;;-2.58;65.60
35878;BME280;21982;49.804;24.072;2023-02-13T01:28:08;98765.75;;;-2.80;65.88
35878;BME280;21982;49.804;24.072;2023-02-13T01:30:33;98533.78;;;-4.41;65.82
35878;BME280;21982;49.804;24.072;2023-02-13T01:32:58;98761.06;;;-3.11;66.06
35878;BME280;21982;49.804;24.072;2023-02-13T01:35:24;98912.31;;;-1.96;66.19
35878;BME280;21982;49.804;24.072;2023-02-13T01:37:49;98849.91;;;-2.31;66.35
35878;BME280;21982;49.804;24.072;2023-02-13T01:40:15;98540.56;;;-4.18;66.00
35878;BME280;21982;49.804;24.072;2023-02-13T01:42:41;98857.75;;;-2.32;66.54
35878;BME280;21982;49.804;24.072;2023-02-13T01:45:29;98908.94;;;-1.80;66.15
35878;BME280;21982;49.804;24.072;2023-02-13T01:53:11;98905.53;;;-1.63;66.50
35878;BME280;21982;49.804;24.072;2023-02-13T01:55:50;98614.72;;;-3.40;66.13
35878;BME280;21982;49.804;24.072;2023-02-13T01:58:20;98736.81;;;-2.35;66.45
35878;BME280;21982;49.804;24.072;2023-02-13T02:00:48;98814.44;;;-1.94;66.91
35878;BME280;21982;49.804;24.072;2023-02-13T02:03:26;98637.81;;;-2.98;66.62
35878;BME280;21982;49.804;24.072;2023-02-13T02:05:55;98694.38;;;-2.34;66.21
35878;BME280;21982;49.804;24.072;2023-02-13T02:08:23;98784.53;;;-1.67;66.66
35878;BME280;21982;49.804;24.072;2023-02-13T02:10:49;98830.91;;;-1.59;66.41
35878;BME280;21982;49.804;24.072;2023-02-13T02:13:19;98455.75;;;-3.55;66.24
35878;BME280;21982;49.804;24.072;2023-02-13T02:15:46;98461.25;;;-3.44;66.50
35878;BME280;21982;49.804;24.072;2023-02-13T02:18:15;98584.97;;;-2.59;66.45
35878;BME280;21982;49.804;24.072;2023-02-13T02:42:38;98873.22;;;-0.38;66.39
35878;BME280;21982;49.804;24.072;2023-02-13T02:50:50;98514.34;;;-2.30;65.74
35878;BME280;21982;49.804;24.072;2023-02-13T02:56:18;98504.22;;;-2.52;65.59
35878;BME280;21982;49.804;24.072;2023-02-13T02:58:49;98912.56;;;0.05;65.86
35878;BME280;21982;49.804;24.072;2023-02-13T03:01:35;98622.66;;;-1.83;66.11
35878;BME280;21982;49.804;24.072;2023-02-13T03:04:33;98751.22;;;-0.60;65.74
35878;BME280;21982;49.804;24.072;2023-02-13T03:07:19;98866.88;;;-0.01;65.80
35878;BME280;21982;49.804;24.072;2023-02-13T03:09:47;98694.09;;;-1.42;65.77
35878;BME280;21982;49.804;24.072;2023-02-13T03:13:00;98868.66;;;-0.02;66.05
35878;BME280;21982;49.804;24.072;2023-02-13T03:15:42;98672.19;;;-1.71;65.71
35878;BME280;21982;49.804;24.072;2023-02-13T03:18:29;98882.47;;;-0.17;65.95
35878;BME280;21982;49.804;24.072;2023-02-13T03:24:52;98871.94;;;-0.31;65.95
35878;BME280;21982;49.804;24.072;2023-02-13T03:30:28;98856.94;;;-0.26;66.46
35878;BME280;21982;49.804;24.072;2023-02-13T03:36:06;98815.94;;;-0.70;65.87
35878;BME280;21982;49.804;24.072;2023-02-13T03:38:50;98861.47;;;-0.29;66.29
35878;BME280;21982;49.804;24.072;2023-02-13T03:41:23;98463.44;;;-2.83;66.36
35878;BME280;21982;49.804;24.072;2023-02-13T03:46:37;98599.41;;;-1.69;66.35
35878;BME280;21982;49.804;24.072;2023-02-13T03:49:05;98853.59;;;-0.12;66.71
35878;BME280;21982;49.804;24.072;2023-02-13T03:52:08;98262.34;;;-3.70;66.21
35878;BME280;21982;49.804;24.072;2023-02-13T03:54:44;98853.00;;;-0.02;66.24
35878;BME280;21982;49.804;24.072;2023-02-13T03:57:32;98446.22;;;-2.84;66.00
35878;BME280;21982;49.804;24.072;2023-02-13T04:00:20;98380.84;;;-3.23;65.90
35878;BME280;21982;49.804;24.072;2023-02-13T04:02:57;98691.47;;;-0.93;66.39
35878;BME280;21982;49.804;24.072;2023-02-13T04:05:27;98853.75;;;0.00;66.49
35878;BME280;21982;49.804;24.072;2023-02-13T04:07:53;98715.47;;;-0.88;66.62
35878;BME280;21982;49.804;24.072;2023-02-13T04:10:19;98855.44;;;0.02;66.73
35878;BME280;21982;49.804;24.072;2023-02-13T04:13:19;98845.34;;;0.11;66.46
35878;BME280;21982;49.804;24.072;2023-02-13T04:15:52;98713.72;;;-0.72;66.45
35878;BME280;21982;49.804;24.072;2023-02-13T04:18:26;98696.31;;;-1.03;66.82
35878;BME280;21982;49.804;24.072;2023-02-13T04:20:53;98878.38;;;0.11;66.95
35878;BME280;21982;49.804;24.072;2023-02-13T04:23:19;98840.63;;;0.18;66.86
35878;BME280;21982;49.804;24.072;2023-02-13T04:25:48;98866.69;;;0.18;66.78
35878;BME280;21982;49.804;24.072;2023-02-13T04:28:14;98842.00;;;0.09;67.08
35878;BME280;21982;49.804;24.072;2023-02-13T04:30:40;98789.41;;;-0.29;67.12
35878;BME280;21982;49.804;24.072;2023-02-13T04:33:06;98422.91;;;-2.51;67.31
35878;BME280;21982;49.804;24.072;2023-02-13T04:35:31;98740.13;;;-0.95;67.02
35878;BME280;21982;49.804;24.072;2023-02-13T04:37:56;98578.81;;;-1.56;67.42
35878;BME280;21982;49.804;24.072;2023-02-13T04:40:22;98269.19;;;-3.69;67.01
35878;BME280;21982;49.804;24.072;2023-02-13T04:42:47;98776.44;;;-0.45;67.26
35878;BME280;21982;49.804;24.072;2023-02-13T04:45:14;98528.84;;;-1.93;67.29
35878;BME280;21982;49.804;24.072;2023-02-13T04:47:40;98477.31;;;-2.33;67.62
35878;BME280;21982;49.804;24.072;2023-02-13T04:50:06;98089.19;;;-4.77;67.12
35878;BME280;21982;49.804;24.072;2023-02-13T04:52:32;98547.81;;;-1.75;67.67
35878;BME280;21982;49.804;24.072;2023-02-13T04:54:57;98832.91;;;0.00;67.84
35878;BME280;21982;49.804;24.072;2023-02-13T04:57:22;98462.22;;;-2.25;67.63
35878;BME280;21982;49.804;24.072;2023-02-13T04:59:48;98573.97;;;-1.47;67.66
35878;BME280;21982;49.804;24.072;2023-02-13T05:02:14;98602.13;;;-1.55;67.77
35878;BME280;21982;49.804;24.072;2023-02-13T05:04:39;98818.78;;;0.05;67.90
35878;BME280;21982;49.804;24.072;2023-02-13T05:07:04;98137.72;;;-4.30;67.49
35878;BME280;21982;49.804;24.072;2023-02-13T05:09:30;98339.03;;;-2.83;67.97
35878;BME280;21982;49.804;24.072;2023-02-13T05:11:55;98485.00;;;-2.15;67.98
35878;BME280;21982;49.804;24.072;2023-02-13T05:14:21;98819.38;;;0.10;68.18
35878;BME280;21982;49.804;24.072;2023-02-13T05:16:46;98691.47;;;-0.93;68.14
35878;BME280;21982;49.804;24.072;2023-02-13T05:19:14;98834.09;;;0.11;68.41
35878;BME280;21982;49.804;24.072;2023-02-13T05:21:40;98382.09;;;-2.47;68.01
35878;BME280;21982;49.804;24.072;2023-02-13T05:24:24;98531.22;;;-1.57;68.34
35878;BME280;21982;49.804;24.072;2023-02-13T05:26:49;98844.16;;;0.17;68.66
35878;BME280;21982;49.804;24.072;2023-02-13T05:29:15;98648.03;;;-0.91;68.49
35878;BME280;21982;49.804;24.072;2023-02-13T05:31:48;98633.53;;;-1.11;68.40
35878;BME280;21982;49.804;24.072;2023-02-13T05:34:14;98778.69;;;-0.23;68.89
35878;BME280;21982;49.804;24.072;2023-02-13T05:36:40;98334.47;;;-2.95;68.47
35878;BME280;21982;49.804;24.072;2023-02-13T05:39:05;98543.41;;;-1.42;68.87
35878;BME280;21982;49.804;24.072;2023-02-13T05:41:31;98382.59;;;-2.41;68.46
35878;BME280;21982;49.804;24.072;2023-02-13T05:43:56;98508.50;;;-1.85;69.01
35878;BME280;21982;49.804;24.072;2023-02-13T05:46:22;98578.50;;;-1.03;68.71
35878;BME280;21982;49.804;24.072;2023-02-13T05:48:47;98389.34;;;-2.21;68.79
35878;BME280;21982;49.804;24.072;2023-02-13T05:51:13;98813.84;;;0.46;69.16
35878;BME280;21982;49.804;24.072;2023-02-13T05:53:38;98421.13;;;-2.17;68.81
35878;BME280;21982;49.804;24.072;2023-02-13T05:56:04;98471.59;;;-1.43;68.79
35878;BME280;21982;49.804;24.072;2023-02-13T05:58:31;98787.78;;;0.31;69.24
35878;BME280;21982;49.804;24.072;2023-02-13T06:00:57;98503.09;;;-1.49;69.22
35878;BME280;21982;49.804;24.072;2023-02-13T06:03:24;98432.38;;;-1.54;69.20
35878;BME280;21982;49.804;24.072;2023-02-13T06:05:50;98840.88;;;0.89;69.54
35878;BME280;21982;49.804;24.072;2023-02-13T06:08:18;98362.28;;;-1.85;69.05
35878;BME280;21982;49.804;24.072;2023-02-13T06:10:45;98619.09;;;-0.09;69.45
35878;BME280;21982;49.804;24.072;2023-02-13T06:13:11;98683.66;;;0.44;69.27
35878;BME280;21982;49.804;24.072;2023-02-13T06:15:36;98688.28;;;0.25;69.35
35878;BME280;21982;49.804;24.072;2023-02-13T06:18:02;98369.81;;;-1.35;69.30
35878;BME280;21982;49.804;24.072;2023-02-13T06:20:27;98287.22;;;-2.20;69.56
35878;BME280;21982;49.804;24.072;2023-02-13T06:22:53;98810.44;;;1.60;69.44
35878;BME280;21982;49.804;24.072;2023-02-13T06:25:19;98368.78;;;-1.32;69.55
35878;BME280;21982;49.804;24.072;2023-02-13T06:27:47;98814.25;;;1.69;69.84
35878;BME280;21982;49.804;24.072;2023-02-13T06:30:13;98807.19;;;1.71;69.95
35878;BME280;21982;49.804;24.072;2023-02-13T06:32:39;98812.09;;;1.76;69.75
35878;BME280;21982;49.804;24.072;2023-02-13T06:35:05;98803.03;;;1.81;69.99
35878;BME280;21982;49.804;24.072;2023-02-13T06:37:30;98799.94;;;1.89;70.87
35878;BME280;21982;49.804;24.072;2023-02-13T06:39:56;98697.63;;;1.14;70.79
35878;BME280;21982;49.804;24.072;2023-02-13T06:42:21;98789.94;;;1.95;70.24
35878;BME280;21982;49.804;24.072;2023-02-13T06:44:47;98601.91;;;0.88;70.70
35878;BME280;21982;49.804;24.072;2023-02-13T06:47:12;98791.13;;;2.04;70.80
35878;BME280;21982;49.804;24.072;2023-02-13T06:49:37;98731.44;;;1.71;71.07
35878;BME280;21982;49.804;24.072;2023-02-13T06:52:03;98792.00;;;2.17;70.97
35878;BME280;21982;49.804;24.072;2023-02-13T06:54:30;98774.94;;;2.12;71.34
35878;BME280;21982;49.804;24.072;2023-02-13T06:56:55;98446.06;;;-0.04;71.28
35878;BME280;21982;49.804;24.072;2023-02-13T06:59:21;98587.69;;;1.06;71.12
35878;BME280;21982;49.804;24.072;2023-02-13T07:01:46;98241.72;;;-1.07;71.46
35878;BME280;21982;49.804;24.072;2023-02-13T07:04:11;98764.38;;;2.40;72.08
35878;BME280;21982;49.804;24.072;2023-02-13T07:06:37;98744.72;;;2.34;72.10
35878;BME280;21982;49.804;24.072;2023-02-13T07:09:03;98794.56;;;2.71;71.81
35878;BME280;21982;49.804;24.072;2023-02-13T07:11:29;98764.81;;;2.59;72.26
35878;BME280;21982;49.804;24.072;2023-02-13T07:13:54;98777.84;;;2.74;72.02
35878;BME280;21982;49.804;24.072;2023-02-13T07:16:19;98807.94;;;2.79;72.40
35878;BME280;21982;49.804;24.072;2023-02-13T07:18:45;98626.78;;;1.74;72.19
35878;BME280;21982;49.804;24.072;2023-02-13T07:21:10;98688.31;;;2.18;72.03
35878;BME280;21982;49.804;24.072;2023-02-13T07:23:36;98793.75;;;2.96;72.56
35878;BME280;21982;49.804;24.072;2023-02-13T07:26:01;98763.56;;;2.78;72.31
35878;BME280;21982;49.804;24.072;2023-02-13T07:28:27;98796.03;;;3.13;72.22
35878;BME280;21982;49.804;24.072;2023-02-13T07:30:53;98746.44;;;2.86;72.47
35878;BME280;21982;49.804;24.072;2023-02-13T07:33:19;98645.97;;;2.13;71.98
35878;BME280;21982;49.804;24.072;2023-02-13T07:35:49;98841.91;;;3.19;72.39
35878;BME280;21982;49.804;24.072;2023-02-13T07:38:15;98779.94;;;3.07;72.48
35878;BME280;21982;49.804;24.072;2023-02-13T07:40:41;98604.06;;;2.01;72.67
35878;BME280;21982;49.804;24.072;2023-02-13T07:43:07;98780.97;;;3.04;72.72
35878;BME280;21982;49.804;24.072;2023-02-13T07:45:32;98794.56;;;3.22;72.51
35878;BME280;21982;49.804;24.072;2023-02-13T07:47:57;98637.84;;;2.30;72.98
35878;BME280;21982;49.804;24.072;2023-02-13T07:50:24;98737.53;;;2.89;72.56
35878;BME280;21982;49.804;24.072;2023-02-13T07:52:57;98784.63;;;3.27;72.35
35878;BME280;21982;49.804;24.072;2023-02-13T07:55:23;98791.44;;;3.29;72.91
35878;BME280;21982;49.804;24.072;2023-02-13T07:57:49;98784.09;;;3.34;72.96
35878;BME280;21982;49.804;24.072;2023-02-13T08:00:16;98704.56;;;2.86;72.49
35878;BME280;21982;49.804;24.072;2023-02-13T08:02:42;98767.44;;;3.35;72.62
35878;BME280;21982;49.804;24.072;2023-02-13T08:05:08;98771.75;;;3.36;73.18
35878;BME280;21982;49.804;24.072;2023-02-13T08:07:34;98779.91;;;3.45;73.53
35878;BME280;21982;49.804;24.072;2023-02-13T08:09:59;98719.44;;;3.11;73.39
35878;BME280;21982;49.804;24.072;2023-02-13T08:12:44;98786.38;;;3.52;72.67
35878;BME280;21982;49.804;24.072;2023-02-13T08:15:14;98627.81;;;2.49;73.24
35878;BME280;21982;49.804;24.072;2023-02-13T08:17:40;98779.19;;;3.79;73.27
35878;BME280;21982;49.804;24.072;2023-02-13T08:20:06;98700.50;;;3.44;72.70
35878;BME280;21982;49.804;24.072;2023-02-13T08:22:36;98713.22;;;3.61;72.40
35878;BME280;21982;49.804;24.072;2023-02-13T08:25:03;98544.25;;;2.48;72.76
35878;BME280;21982;49.804;24.072;2023-02-13T08:27:28;98777.75;;;3.75;72.72
35878;BME280;21982;49.804;24.072;2023-02-13T08:29:55;98669.97;;;3.19;72.50
35878;BME280;21982;49.804;24.072;2023-02-13T08:32:22;98705.03;;;3.42;72.57
35878;BME280;21982;49.804;24.072;2023-02-13T08:34:48;98773.50;;;3.85;72.82
35878;BME280;21982;49.804;24.072;2023-02-13T08:37:13;98750.50;;;3.65;72.61
35878;BME280;21982;49.804;24.072;2023-02-13T08:39:39;98693.81;;;3.40;72.84
35878;BME280;21982;49.804;24.072;2023-02-13T08:42:04;98699.69;;;3.44;73.60
35878;BME280;21982;49.804;24.072;2023-02-13T08:44:30;98768.03;;;3.88;73.59
35878;BME280;21982;49.804;24.072;2023-02-13T08:46:56;98644.97;;;3.15;72.97
35878;BME280;21982;49.804;24.072;2023-02-13T08:49:22;98635.16;;;3.06;72.87
35878;BME280;21982;49.804;24.072;2023-02-13T08:51:48;98649.78;;;3.21;73.29
35878;BME280;21982;49.804;24.072;2023-02-13T08:54:16;98752.53;;;3.85;73.27
35878;BME280;21982;49.804;24.072;2023-02-13T08:56:42;98686.31;;;3.59;72.85
35878;BME280;21982;49.804;24.072;2023-02-13T08:59:07;98233.72;;;0.57;73.14
35878;BME280;21982;49.804;24.072;2023-02-13T09:01:33;98754.44;;;4.07;72.93
35878;BME280;21982;49.804;24.072;2023-02-13T09:03:58;98628.50;;;3.26;73.21
35878;BME280;21982;49.804;24.072;2023-02-13T09:06:24;98778.44;;;4.14;72.99
35878;BME280;21982;49.804;24.072;2023-02-13T09:08:53;98751.03;;;4.18;73.29
35878;BME280;21982;49.804;24.072;2023-02-13T09:11:19;98450.44;;;2.43;72.89
35878;BME280;21982;49.804;24.072;2023-02-13T09:13:48;98765.69;;;4.44;72.80
35878;BME280;21982;49.804;24.072;2023-02-13T09:16:14;98637.41;;;3.47;72.42
35878;BME280;21982;49.804;24.072;2023-02-13T09:18:40;98549.19;;;3.13;72.65
35878;BME280;21982;49.804;24.072;2023-02-13T09:21:09;98492.59;;;2.51;72.74
35878;BME280;21982;49.804;24.072;2023-02-13T09:23:37;98756.88;;;4.45;72.65
35878;BME280;21982;49.804;24.072;2023-02-13T09:26:06;98477.72;;;2.52;72.54
35878;BME280;21982;49.804;24.072;2023-02-13T09:28:33;98242.22;;;1.36;71.97
35878;BME280;21982;49.804;24.072;2023-02-13T09:31:09;97951.31;;;-0.40;72.14
35878;BME280;21982;49.804;24.072;2023-02-13T09:33:35;98618.59;;;3.66;72.23
35878;BME280;21982;49.804;24.072;2023-02-13T09:36:06;98728.25;;;4.07;72.18
35878;BME280;21982;49.804;24.072;2023-02-13T09:38:32;98666.44;;;3.92;73.00
35878;BME280;21982;49.804;24.072;2023-02-13T09:41:20;98463.47;;;2.68;72.41
35878;BME280;21982;49.804;24.072;2023-02-13T09:43:57;98746.38;;;4.45;72.46
35878;BME280;21982;49.804;24.072;2023-02-13T09:46:31;98257.16;;;1.21;72.12
35878;BME280;21982;49.804;24.072;2023-02-13T09:48:59;98083.13;;;0.24;72.01
35878;BME280;21982;49.804;24.072;2023-02-13T09:51:27;98347.66;;;1.95;72.43
35878;BME280;21982;49.804;24.072;2023-02-13T09:54:01;98742.31;;;4.41;72.55
35878;BME280;21982;49.804;24.072;2023-02-13T10:16:18;98667.22;;;4.05;72.75
35878;BME280;21982;49.804;24.072;2023-02-13T10:18:56;98590.47;;;3.57;72.39
35878;BME280;21982;49.804;24.072;2023-02-13T10:21:31;98732.94;;;4.50;73.03
35878;BME280;21982;49.804;24.072;2023-02-13T10:26:49;98489.06;;;3.00;72.99
35878;BME280;21982;49.804;24.072;2023-02-13T10:29:20;98723.28;;;4.50;73.07
35878;BME280;21982;49.804;24.072;2023-02-13T10:32:13;98079.44;;;0.52;72.61
35878;BME280;21982;49.804;24.072;2023-02-13T10:34:43;98456.38;;;2.82;72.82
35878;BME280;21982;49.804;24.072;2023-02-13T10:37:13;98638.28;;;4.18;72.57
35878;BME280;21982;49.804;24.072;2023-02-13T10:39:40;98564.47;;;3.43;72.72
35878;BME280;21982;49.804;24.072;2023-02-13T10:50:02;98671.91;;;4.13;73.16
35878;BME280;21982;49.804;24.072;2023-02-13T10:52:51;98650.72;;;4.16;73.25
35878;BME280;21982;49.804;24.072;2023-02-13T10:59:17;98707.03;;;4.56;72.99
35878;BME280;21982;49.804;24.072;2023-02-13T11:04:12;98351.13;;;2.19;73.09
35878;BME280;21982;49.804;24.072;2023-02-13T11:06:42;98348.56;;;2.54;72.63
35878;BME280;21982;49.804;24.072;2023-02-13T11:09:08;98581.81;;;4.02;73.32
35878;BME280;21982;49.804;24.072;2023-02-13T11:11:39;98721.88;;;4.91;72.79
35878;BME280;21982;49.804;24.072;2023-02-13T11:14:15;98703.53;;;4.91;73.04
35878;BME280;21982;49.804;24.072;2023-02-13T11:17:01;98702.19;;;4.85;72.56
35878;BME280;21982;49.804;24.072;2023-02-13T11:19:29;98710.69;;;4.89;72.82
35878;BME280;21982;49.804;24.072;2023-02-13T11:21:59;98711.63;;;4.88;73.13
35878;BME280;21982;49.804;24.072;2023-02-13T11:24:27;98481.97;;;3.13;72.81
35878;BME280;21982;49.804;24.072;2023-02-13T11:27:06;98173.72;;;1.45;72.04
35878;BME280;21982;49.804;24.072;2023-02-13T11:29:35;98703.28;;;4.83;73.21
35878;BME280;21982;49.804;24.072;2023-02-13T11:32:06;98225.63;;;1.73;72.64
35878;BME280;21982;49.804;24.072;2023-02-13T11:34:36;98536.53;;;4.00;73.01
35878;BME280;21982;49.804;24.072;2023-02-13T11:39:36;98694.00;;;5.01;73.08
35878;BME280;21982;49.804;24.072;2023-02-13T11:42:02;98655.91;;;4.62;72.72
35878;BME280;21982;49.804;24.072;2023-02-13T11:44:29;98565.63;;;4.31;72.55
35878;BME280;21982;49.804;24.072;2023-02-13T11:46:57;98729.66;;;5.03;72.58
35878;BME280;21982;49.804;24.072;2023-02-13T11:49:32;98739.81;;;5.08;72.53
35878;BME280;21982;49.804;24.072;2023-02-13T11:52:10;98077.56;;;1.27;72.54
35878;BME280;21982;49.804;24.072;2023-02-13T11:54:42;98639.72;;;4.79;72.19
35878;BME280;21982;49.804;24.072;2023-02-13T11:57:27;98700.81;;;5.15;72.58
35878;BME280;21982;49.804;24.072;2023-02-13T11:59:54;98212.47;;;2.10;72.61
35878;BME280;21982;49.804;24.072;2023-02-13T12:04:51;98452.66;;;3.78;72.77
35878;BME280;21982;49.804;24.072;2023-02-13T12:07:28;98680.84;;;5.23;72.13
35878;BME280;21982;49.804;24.072;2023-02-13T12:12:58;98607.38;;;4.79;72.28
35878;BME280;21982;49.804;24.072;2023-02-13T12:15:32;98675.34;;;5.26;72.35
35878;BME280;21982;49.804;24.072;2023-02-13T12:21:14;98677.25;;;5.24;71.99
35878;BME280;21982;49.804;24.072;2023-02-13T12:37:25;98657.19;;;5.34;71.62
35878;BME280;21982;49.804;24.072;2023-02-13T12:45:32;98640.00;;;5.42;71.68
35878;BME280;21982;49.804;24.072;2023-02-13T12:59:07;98548.66;;;4.91;71.22
35878;BME280;21982;49.804;24.072;2023-02-13T13:01:58;98657.25;;;5.55;71.06
35878;BME280;21982;49.804;24.072;2023-02-13T13:05:04;98650.50;;;5.53;71.39
35878;BME280;21982;49.804;24.072;2023-02-13T13:15:23;98641.81;;;5.73;70.92
35878;BME280;21982;49.804;24.072;2023-02-13T13:23:11;98261.78;;;3.18;71.25
35878;BME280;21982;49.804;24.072;2023-02-13T13:28:22;98671.56;;;5.62;71.09
35878;BME280;21982;49.804;24.072;2023-02-13T13:30:49;98622.50;;;5.63;71.64
35878;BME280;21982;49.804;24.072;2023-02-13T13:33:20;98656.91;;;5.60;70.73
35878;BME280;21982;49.804;24.072;2023-02-13T13:36:05;98614.22;;;5.35;70.99
35878;BME280;21982;49.804;24.072;2023-02-13T13:38:42;98638.47;;;5.28;71.10
35878;BME280;21982;49.804;24.072;2023-02-13T13:47:09;98630.00;;;5.24;71.61
35878;BME280;21982;49.804;24.072;2023-02-13T13:49:50;98634.50;;;5.33;71.85
35878;BME280;21982;49.804;24.072;2023-02-13T13:52:30;98636.19;;;5.34;71.83
35878;BME280;21982;49.804;24.072;2023-02-13T13:54:58;98450.97;;;4.33;71.76
35878;BME280;21982;49.804;24.072;2023-02-13T13:58:17;98613.00;;;5.39;71.31
35878;BME280;21982;49.804;24.072;2023-02-13T14:03:12;98616.84;;;5.35;71.51
35878;BME280;21982;49.804;24.072;2023-02-13T14:05:57;98629.72;;;5.38;71.65
35878;BME280;21982;49.804;24.072;2023-02-13T14:11:02;98461.34;;;4.23;71.81
35878;BME280;21982;49.804;24.072;2023-02-13T14:13:30;98601.88;;;5.04;71.84
35878;BME280;21982;49.804;24.072;2023-02-13T14:15:57;98628.25;;;5.14;72.28
35878;BME280;21982;49.804;24.072;2023-02-13T14:18:24;98617.50;;;5.17;72.39
35878;BME280;21982;49.804;24.072;2023-02-13T14:20:52;98619.72;;;5.21;72.38
35878;BME280;21982;49.804;24.072;2023-02-13T14:23:44;98621.88;;;5.27;72.24
35878;BME280;21982;49.804;24.072;2023-02-13T14:28:41;98613.06;;;5.17;72.49
35878;BME280;21982;49.804;24.072;2023-02-13T14:31:26;98612.13;;;5.18;72.01
35878;BME280;21982;49.804;24.072;2023-02-13T14:36:31;98484.34;;;4.42;72.23
35878;BME280;21982;49.804;24.072;2023-02-13T14:39:19;98582.41;;;5.07;72.20
35878;BME280;21982;49.804;24.072;2023-02-13T14:44:21;98618.75;;;5.33;72.46
35878;BME280;21982;49.804;24.072;2023-02-13T14:46:49;98537.44;;;4.89;71.98
35878;BME280;21982;49.804;24.072;2023-02-13T14:49:24;98431.31;;;4.27;71.76
35878;BME280;21982;49.804;24.072;2023-02-13T14:51:54;98448.47;;;4.43;71.99
35878;BME280;21982;49.804;24.072;2023-02-13T14:54:38;98606.09;;;5.38;71.49
35878;BME280;21982;49.804;24.072;2023-02-13T14:57:16;98613.84;;;5.40;72.13
35878;BME280;21982;49.804;24.072;2023-02-13T14:59:49;98519.72;;;4.70;71.63
35878;BME280;21982;49.804;24.072;2023-02-13T15:02:21;98606.47;;;5.34;71.96
35878;BME280;21982;49.804;24.072;2023-02-13T15:04:54;98608.50;;;5.30;71.91
35878;BME280;21982;49.804;24.072;2023-02-13T15:07:23;98571.78;;;5.08;71.95
35878;BME280;21982;49.804;24.072;2023-02-13T15:09:54;98600.16;;;5.25;72.21
35878;BME280;21982;49.804;24.072;2023-02-13T15:12:25;98554.63;;;5.04;71.98
35878;BME280;21982;49.804;24.072;2023-02-13T15:14:50;98521.28;;;4.72;72.49
35878;BME280;21982;49.804;24.072;2023-02-13T15:17:22;98587.53;;;5.19;72.10
35878;BME280;21982;49.804;24.072;2023-02-13T15:19:53;98469.09;;;4.47;71.94
35878;BME280;21982;49.804;24.072;2023-02-13T15:22:32;98478.16;;;4.43;72.39
35878;BME280;21982;49.804;24.072;2023-02-13T15:24:59;98510.91;;;4.71;72.16
35878;BME280;21982;49.804;24.072;2023-02-13T15:27:39;98563.31;;;5.04;72.25
35878;BME280;21982;49.804;24.072;2023-02-13T15:32:56;98535.06;;;4.86;71.88
35878;BME280;21982;49.804;24.072;2023-02-13T15:35:30;98296.69;;;3.41;72.14
35878;BME280;21982;49.804;24.072;2023-02-13T15:37:57;98357.63;;;3.65;72.13
35878;BME280;21982;49.804;24.072;2023-02-13T15:40:27;98542.97;;;4.75;72.59
35878;BME280;21982;49.804;24.072;2023-02-13T15:42:54;98554.31;;;4.75;72.30
35878;BME280;21982;49.804;24.072;2023-02-13T15:45:21;98547.75;;;4.69;72.67
35878;BME280;21982;49.804;24.072;2023-02-13T15:47:48;98409.06;;;3.77;72.59
35878;BME280;21982;49.804;24.072;2023-02-13T15:50:17;98557.66;;;4.66;72.77
35878;BME280;21982;49.804;24.072;2023-02-13T15:52:44;98425.50;;;3.90;72.48